CheckWX is a tool to help pilots better visualize weather data.  It is not intended as a substitute for an official pre-flight weather briefing.

20:13:55 UTC

KBUY METAR
Burlington-Alamance Regional Airport
Burlington, North Carolina, USA
Current

20 mins ago

KBUY 261954Z AUTO 00000KT 10SM CLR 31/15 A3014 RMK AO2 SLP197 T03110150
Observed
Jun-26 @ 19:54 UTC
Visibility
10 SM
Flight Rules
VFR
Cloud Levels
  • Clear skies
Temperature
31°C / 88°F
Dewpoint
15°C / 59°F
Humidity
38%
Altimeter
30.14" Hg
Pressure
1020.62 hPa
Previous

1 hour ago

KBUY 261854Z AUTO VRB03KT 10SM CLR 31/16 A3014 RMK AO2 SLP197 T03110156
Observed
Jun-26 @ 18:54 UTC
Wind
  • Variable at 3 KTS
Visibility
10 SM
Flight Rules
VFR
Cloud Levels
  • Clear skies
Temperature
31°C / 88°F
Dewpoint
16°C / 61°F
Heat Index
31°C / 88°F
Humidity
40%
Altimeter
30.14" Hg
Pressure
1020.62 hPa
Previous

2 hours ago

KBUY 261754Z AUTO 34005KT 10SM CLR 31/16 A3014 RMK AO2 SLP199 T03060156 10311 20244 58009
Observed
Jun-26 @ 17:54 UTC
Wind
  • 340° at 5 KTS
Visibility
10 SM
Flight Rules
VFR
Cloud Levels
  • Clear skies
Temperature
31°C / 88°F
Dewpoint
16°C / 61°F
Heat Index
31°C / 88°F
Humidity
40%
Altimeter
30.14" Hg
Pressure
1020.62 hPa